Time;durP1;ratioP1;P1;durP2;ratioP2;P2;SDS_P1;SDS_P2;PMS_P1;PMS_P2;Temp;Humidity;BMP_temperature;BMP_pressure;BME280_temperature;BME280_humidity;BME280_pressure;Samples;Min_cycle;Max_cycle;Signal;HPM_P1;HPM_P2
2021/11/06 00:01:05;;;;;;;89.58;31.10;;;;;;;9.66;100.00;101737.57;1739860;80;21051;-86
2021/11/06 00:03:31;;;;;;;80.85;29.55;;;;;;;9.63;100.00;101741.24;1740169;81;21000;-86
2021/11/06 00:05:57;;;;;;;79.65;29.90;;;;;;;9.61;100.00;101740.11;1740228;81;20983;-86
2021/11/06 00:08:23;;;;;;;91.00;33.55;;;;;;;9.55;100.00;101735.09;1739939;82;21488;-86
2021/11/06 00:10:48;;;;;;;88.27;32.23;;;;;;;9.56;100.00;101725.18;1740060;81;20888;-86
2021/11/06 00:13:15;;;;;;;109.45;35.55;;;;;;;9.63;100.00;101714.33;1740049;81;21670;-86
2021/11/06 00:15:41;;;;;;;126.33;40.45;;;;;;;9.63;100.00;101718.37;1705660;82;21939;-86
2021/11/06 00:18:07;;;;;;;119.85;40.40;;;;;;;9.67;100.00;101719.55;1740159;81;21086;-86
2021/11/06 00:20:33;;;;;;;131.85;42.17;;;;;;;9.66;100.00;101718.73;1739815;81;20908;-86
2021/11/06 00:22:58;;;;;;;117.03;39.48;;;;;;;9.60;100.00;101694.59;1710449;81;21038;-85
2021/11/06 00:25:25;;;;;;;131.47;41.77;;;;;;;9.73;100.00;101716.77;1735049;81;21003;-86
2021/11/06 00:27:51;;;;;;;128.47;41.75;;;;;;;9.77;100.00;101717.16;1705255;82;21137;-86
2021/11/06 00:30:17;;;;;;;122.58;40.38;;;;;;;9.76;100.00;101726.27;1734967;82;21095;-86
2021/11/06 00:32:45;;;;;;;125.45;41.98;;;;;;;9.82;100.00;101723.19;1735100;81;21489;-86
2021/11/06 00:35:11;;;;;;;118.05;39.27;;;;;;;9.86;100.00;101721.71;1735166;82;21044;-86
2021/11/06 00:37:40;;;;;;;112.05;37.28;;;;;;;9.91;100.00;101715.09;1735190;81;21047;-86
2021/11/06 00:40:10;;;;;;;113.95;38.83;;;;;;;9.98;100.00;101719.88;1734977;81;21184;-86
2021/11/06 00:42:36;;;;;;;114.92;38.20;;;;;;;10.00;100.00;101724.53;1734963;82;21004;-86
2021/11/06 00:45:04;;;;;;;120.82;39.38;;;;;;;10.01;100.00;101712.16;1735082;82;20916;-86
2021/11/06 00:47:31;;;;;;;105.70;39.63;;;;;;;10.05;100.00;101715.22;1735048;82;21094;-86
2021/11/06 00:49:57;;;;;;;111.75;38.60;;;;;;;10.07;100.00;101719.05;1705870;82;21062;-86
2021/11/06 00:52:23;;;;;;;112.97;35.85;;;;;;;10.07;100.00;101719.05;1735216;82;21117;-86
2021/11/06 00:54:49;;;;;;;99.07;34.58;;;;;;;10.08;100.00;101719.33;1734987;81;20965;-86
2021/11/06 00:57:15;;;;;;;110.60;35.90;;;;;;;10.13;100.00;101714.09;1735025;82;21130;-86
2021/11/06 00:59:40;;;;;;;94.22;34.08;;;;;;;10.15;100.00;101712.81;1735123;82;20876;-86
2021/11/06 01:02:06;;;;;;;103.75;37.48;;;;;;;10.15;100.00;101716.03;1734977;81;21007;-86
2021/11/06 01:04:33;;;;;;;100.82;34.45;;;;;;;10.17;100.00;101709.34;1735041;81;21152;-86
2021/11/06 01:06:58;;;;;;;101.67;35.38;;;;;;;10.18;100.00;101710.19;1734948;81;21095;-86
2021/11/06 01:09:24;;;;;;;103.92;35.10;;;;;;;10.18;100.00;101708.31;1735071;82;20948;-86
2021/11/06 01:11:50;;;;;;;107.75;35.85;;;;;;;10.24;100.00;101707.92;1734942;82;21072;-86
2021/11/06 01:14:16;;;;;;;97.60;34.03;;;;;;;10.31;100.00;101708.66;1735158;81;20980;-86
2021/11/06 01:16:42;;;;;;;98.03;35.25;;;;;;;10.33;100.00;101713.30;1735028;81;21895;-86
2021/11/06 01:19:08;;;;;;;107.50;37.17;;;;;;;10.36;100.00;101712.84;1735249;82;21019;-86
2021/11/06 01:21:34;;;;;;;104.63;36.98;;;;;;;10.41;100.00;101710.28;1705817;82;20952;-86
2021/11/06 01:24:00;;;;;;;109.80;37.08;;;;;;;10.49;100.00;101706.41;1735195;82;21012;-86
2021/11/06 01:26:26;;;;;;;109.35;37.88;;;;;;;10.56;100.00;101701.75;1736033;81;20914;-85
2021/11/06 01:28:52;;;;;;;107.50;38.23;;;;;;;10.61;100.00;101700.51;1740141;80;21920;-86
2021/11/06 01:31:18;;;;;;;104.40;36.00;;;;;;;10.65;100.00;101702.23;1740118;81;20892;-86
2021/11/06 01:33:44;;;;;;;101.07;37.10;;;;;;;10.71;100.00;101717.98;1739833;80;21066;-86
2021/11/06 01:36:10;;;;;;;110.28;34.92;;;;;;;10.76;100.00;101719.45;1739697;80;20972;-86
2021/11/06 01:38:36;;;;;;;101.33;36.73;;;;;;;10.81;100.00;101712.31;1740050;81;20976;-85
2021/11/06 01:41:02;;;;;;;98.17;36.77;;;;;;;10.80;100.00;101706.64;1739546;80;21108;-86
2021/11/06 01:43:28;;;;;;;102.12;34.90;;;;;;;10.81;100.00;101704.22;1740079;81;20976;-85
2021/11/06 01:46:02;;;;;;;109.67;36.63;;;;;;;10.83;100.00;101706.17;1739881;81;21035;-86
2021/11/06 01:48:28;;;;;;;;;;;;;;;10.89;100.00;101701.72;1742024;81;21079;-86
2021/11/06 01:50:56;;;;;;;99.85;35.38;;;;;;;10.99;100.00;101703.28;1739862;81;20172;-86
2021/11/06 01:53:22;;;;;;;110.12;38.23;;;;;;;11.08;100.00;101701.05;1739796;80;21120;-85
2021/11/06 01:55:51;;;;;;;116.40;38.02;;;;;;;11.14;100.00;101696.06;1739766;81;20935;-86
2021/11/06 01:58:21;;;;;;;108.72;37.73;;;;;;;11.19;100.00;101698.06;1739972;81;21007;-85
2021/11/06 02:00:47;;;;;;;122.20;38.38;;;;;;;11.28;100.00;101696.64;1739697;81;20993;-85
2021/11/06 02:03:14;;;;;;;111.10;38.58;;;;;;;11.39;100.00;101696.34;1740001;81;21015;-86
2021/11/06 02:05:42;;;;;;;120.85;40.73;;;;;;;11.43;100.00;101687.51;1739700;81;21096;-86
2021/11/06 02:08:08;;;;;;;121.28;38.92;;;;;;;11.50;100.00;101688.72;1739812;81;21544;-86
2021/11/06 02:10:35;;;;;;;119.22;40.52;;;;;;;11.54;100.00;101696.65;1739896;81;21082;-86
2021/11/06 02:13:01;;;;;;;114.85;38.48;;;;;;;11.56;100.00;101686.44;1739588;81;21106;-86
2021/11/06 02:15:27;;;;;;;125.58;39.20;;;;;;;11.58;100.00;101685.11;1740010;81;21105;-86
2021/11/06 02:17:53;;;;;;;114.60;39.58;;;;;;;11.63;100.00;101688.45;1739864;81;21104;-86
2021/11/06 02:20:22;;;;;;;119.97;39.78;;;;;;;11.65;100.00;101688.20;1739452;80;20988;-86
2021/11/06 02:22:48;;;;;;;114.17;38.83;;;;;;;11.68;100.00;101690.45;1739829;81;21344;-87
2021/11/06 02:25:16;;;;;;;105.60;36.83;;;;;;;11.71;100.00;101683.22;1739845;81;21031;-86
2021/11/06 02:27:43;;;;;;;117.33;39.42;;;;;;;11.71;100.00;101678.63;1739519;81;20952;-86
2021/11/06 02:30:12;;;;;;;112.12;37.08;;;;;;;11.74;100.00;101676.80;1739893;81;21146;-86
2021/11/06 02:32:38;;;;;;;113.65;37.90;;;;;;;11.74;100.00;101676.80;1739875;81;21012;-86
2021/11/06 02:35:06;;;;;;;110.22;36.63;;;;;;;11.82;100.00;101674.23;1739854;81;21035;-86
2021/11/06 02:37:32;;;;;;;125.42;39.20;;;;;;;11.85;100.00;101667.53;1739936;81;21039;-86
2021/11/06 02:39:59;;;;;;;114.57;38.53;;;;;;;11.87;100.00;101668.15;1739717;81;21070;-86
2021/11/06 02:42:25;;;;;;;121.02;40.43;;;;;;;11.88;100.00;101668.42;1739664;81;21207;-86
2021/11/06 02:44:51;;;;;;;117.37;39.33;;;;;;;11.88;100.00;101665.73;1739960;81;20900;-86
2021/11/06 02:47:17;;;;;;;126.22;40.55;;;;;;;11.91;100.00;101655.78;1739843;81;20991;-86
2021/11/06 02:49:43;;;;;;;112.70;40.45;;;;;;;11.95;100.00;101659.12;1739625;81;21027;-86
2021/11/06 02:52:09;;;;;;;119.77;38.85;;;;;;;11.97;100.00;101653.46;1740136;81;21023;-86
2021/11/06 02:54:35;;;;;;;116.25;39.40;;;;;;;12.00;100.00;101659.73;1740099;81;21250;-86
2021/11/06 02:57:01;;;;;;;122.02;40.63;;;;;;;12.05;100.00;101658.48;1739919;81;21023;-86
2021/11/06 02:59:27;;;;;;;126.18;42.40;;;;;;;12.10;100.00;101654.52;1740308;81;21071;-86
2021/11/06 03:01:53;;;;;;;120.50;41.45;;;;;;;12.11;100.00;101648.58;1740206;80;20936;-86
2021/11/06 03:04:19;;;;;;;123.78;42.10;;;;;;;12.12;100.00;101645.65;1739706;80;20963;-86
2021/11/06 03:06:45;;;;;;;122.30;41.05;;;;;;;12.14;100.00;101644.85;1740130;81;21113;-87
2021/11/06 03:09:12;;;;;;;125.07;43.08;;;;;;;12.12;100.00;101642.95;1739831;81;21016;-85
2021/11/06 03:11:39;;;;;;;122.95;40.80;;;;;;;12.14;100.00;101646.74;1740055;80;21158;-86
2021/11/06 03:14:09;;;;;;;118.77;40.28;;;;;;;12.17;100.00;101643.02;1740093;81;21003;-86
2021/11/06 03:16:41;;;;;;;113.15;39.33;;;;;;;12.19;100.00;101640.08;1739830;81;21611;-86
2021/11/06 03:19:08;;;;;;;122.60;40.38;;;;;;;12.17;100.00;101648.41;1739914;81;21157;-86
2021/11/06 03:24:06;;;;;;;113.90;39.33;;;;;;;12.23;100.00;101643.37;1870748;76;21978;-84
2021/11/06 03:26:32;;;;;;;117.08;40.60;;;;;;;12.20;100.00;101637.66;1826126;77;21507;-84
2021/11/06 03:28:58;;;;;;;125.97;41.60;;;;;;;12.21;100.00;101636.61;1826419;78;21104;-85
2021/11/06 03:31:23;;;;;;;129.50;42.03;;;;;;;12.20;100.00;101641.70;1826476;77;20934;-84
2021/11/06 03:33:49;;;;;;;121.42;39.98;;;;;;;12.19;100.00;101637.37;1806142;78;20947;-85
2021/11/06 03:36:15;;;;;;;109.67;37.98;;;;;;;12.15;100.00;101635.70;1826646;78;20849;-84
2021/11/06 03:38:42;;;;;;;131.82;40.92;;;;;;;12.16;100.00;101630.58;1826447;77;20849;-85
2021/11/06 03:41:08;;;;;;;118.67;41.10;;;;;;;12.16;100.00;101640.03;1826451;77;21084;-84
2021/11/06 03:43:34;;;;;;;120.60;41.60;;;;;;;12.17;100.00;101637.61;1826494;78;21244;-84
2021/11/06 03:46:00;;;;;;;123.33;41.80;;;;;;;12.20;100.00;101647.11;1826301;77;21015;-84
2021/11/06 03:48:27;;;;;;;125.22;41.02;;;;;;;12.18;100.00;101641.97;1826506;78;20849;-84
2021/11/06 03:50:54;;;;;;;121.28;40.20;;;;;;;12.13;100.00;101645.92;1826237;78;21483;-84
2021/11/06 03:53:20;;;;;;;127.17;41.45;;;;;;;12.12;100.00;101651.56;1826438;78;21030;-86
2021/11/06 03:55:46;;;;;;;121.15;41.42;;;;;;;12.13;100.00;101654.03;1826464;77;20861;-86
2021/11/06 03:58:12;;;;;;;128.07;41.50;;;;;;;12.12;100.00;101655.11;1826235;78;21035;-86
2021/11/06 04:00:39;;;;;;;131.47;40.67;;;;;;;12.11;100.00;101662.09;1826252;77;21692;-86
2021/11/06 04:03:04;;;;;;;134.22;43.87;;;;;;;12.13;100.00;101664.03;1826374;78;20984;-86
2021/11/06 04:05:30;;;;;;;141.43;43.02;;;;;;;12.08;100.00;101653.13;1826483;78;21036;-86
2021/11/06 04:07:56;;;;;;;132.82;41.23;;;;;;;12.13;100.00;101668.08;1826270;78;20947;-86
2021/11/06 04:10:22;;;;;;;136.05;41.50;;;;;;;12.12;100.00;101657.81;1826581;78;20939;-85
2021/11/06 04:12:48;;;;;;;139.97;42.80;;;;;;;12.18;100.00;101651.96;1826245;78;21011;-85
2021/11/06 04:15:15;;;;;;;148.80;42.80;;;;;;;12.17;100.00;101654.36;1826330;77;21006;-86
2021/11/06 04:17:41;;;;;;;142.45;42.00;;;;;;;12.20;100.00;101655.22;1826322;78;21179;-86
2021/11/06 04:20:09;;;;;;;150.95;44.40;;;;;;;12.22;100.00;101647.16;1826530;78;21002;-86
2021/11/06 04:22:35;;;;;;;147.00;42.00;;;;;;;12.20;100.00;101638.47;1826807;77;21069;-86
2021/11/06 04:25:03;;;;;;;136.75;41.63;;;;;;;12.24;100.00;101641.52;1810917;78;20979;-86
2021/11/06 04:27:29;;;;;;;135.97;41.58;;;;;;;12.25;100.00;101651.27;1829218;78;21170;-86
2021/11/06 04:29:55;;;;;;;155.50;42.95;;;;;;;12.27;100.00;101651.84;1829349;77;21633;-86
2021/11/06 04:32:22;;;;;;;154.72;43.63;;;;;;;12.24;100.00;101656.39;1829250;78;20934;-86
2021/11/06 04:34:48;;;;;;;141.00;42.88;;;;;;;12.23;100.00;101655.55;1828762;78;21479;-86
2021/11/06 04:37:15;;;;;;;133.47;40.65;;;;;;;12.23;100.00;101650.67;1829213;78;20924;-86
2021/11/06 04:39:41;;;;;;;140.22;42.98;;;;;;;12.20;100.00;101650.63;1810872;78;21129;-86
2021/11/06 04:42:07;;;;;;;153.02;40.83;;;;;;;12.22;100.00;101656.62;1828862;78;21573;-86
2021/11/06 04:44:34;;;;;;;137.25;40.60;;;;;;;12.22;100.00;101666.08;1828984;78;20976;-86
2021/11/06 04:47:00;;;;;;;135.05;41.15;;;;;;;12.29;100.00;101667.27;1829195;78;21023;-86
2021/11/06 04:49:26;;;;;;;140.15;40.10;;;;;;;12.22;100.00;101657.97;1828935;77;20995;-86
2021/11/06 04:51:52;;;;;;;131.43;38.60;;;;;;;12.24;100.00;101662.61;1825943;78;20860;-85
2021/11/06 04:54:18;;;;;;;137.12;39.85;;;;;;;12.19;100.00;101670.63;1829000;78;20999;-86
2021/11/06 04:56:44;;;;;;;145.25;39.13;;;;;;;12.19;100.00;101663.86;1828639;78;21369;-85
2021/11/06 04:59:10;;;;;;;128.12;40.30;;;;;;;12.17;100.00;101670.57;1828981;77;20963;-85
2021/11/06 05:01:37;;;;;;;128.23;38.80;;;;;;;12.19;100.00;101673.32;1828923;78;21054;-85
2021/11/06 05:04:03;;;;;;;137.82;39.63;;;;;;;12.20;100.00;101669.55;1825577;78;20995;-85
2021/11/06 05:06:30;;;;;;;129.15;38.75;;;;;;;12.22;100.00;101671.48;1828943;78;21097;-85
2021/11/06 05:08:57;;;;;;;130.72;37.95;;;;;;;12.30;100.00;101677.56;1828734;78;20983;-85
2021/11/06 05:11:23;;;;;;;119.50;37.15;;;;;;;12.32;100.00;101672.17;1828802;78;20971;-85
2021/11/06 05:13:49;;;;;;;133.00;38.63;;;;;;;12.31;100.00;101675.14;1829005;77;21551;-87
2021/11/06 05:16:14;;;;;;;127.50;38.33;;;;;;;12.30;100.00;101677.56;1829425;77;20864;-87
2021/11/06 05:18:41;;;;;;;119.67;36.88;;;;;;;12.28;100.00;101678.61;1828736;78;21273;-85
2021/11/06 05:21:07;;;;;;;126.90;39.15;;;;;;;12.32;100.00;101686.23;1828164;78;20973;-85
2021/11/06 05:23:33;;;;;;;133.37;40.15;;;;;;;12.30;100.00;101688.38;1830102;78;20995;-85
2021/11/06 05:25:59;;;;;;;148.05;39.45;;;;;;;12.30;100.00;101689.19;1831706;77;20999;-86
2021/11/06 05:28:26;;;;;;;146.47;38.08;;;;;;;12.36;100.00;101687.40;1832096;77;21053;-88
2021/11/06 05:30:52;;;;;;;138.85;39.33;;;;;;;12.40;100.00;101681.78;1831825;78;22075;-86
2021/11/06 05:33:18;;;;;;;126.10;37.63;;;;;;;12.45;100.00;101692.14;1832026;78;20872;-84
2021/11/06 05:35:44;;;;;;;131.95;39.90;;;;;;;12.46;100.00;101686.20;1831985;77;20935;-85
2021/11/06 05:38:10;;;;;;;141.55;37.58;;;;;;;12.51;100.00;101687.64;1831940;77;21456;-85
2021/11/06 05:40:37;;;;;;;136.00;39.48;;;;;;;12.50;100.00;101684.13;1832002;77;21382;-86
2021/11/06 05:43:04;;;;;;;143.32;40.00;;;;;;;12.53;100.00;101689.58;1831630;77;21994;-86
2021/11/06 05:45:30;;;;;;;147.10;39.25;;;;;;;12.61;100.00;101693.73;1831778;78;21011;-85
2021/11/06 05:47:56;;;;;;;143.40;41.58;;;;;;;12.58;100.00;101689.64;1832142;77;20895;-85
2021/11/06 05:50:22;;;;;;;146.37;40.28;;;;;;;12.60;100.00;101675.34;1831873;78;20983;-86
2021/11/06 05:52:48;;;;;;;135.72;37.98;;;;;;;12.65;100.00;101691.66;1831932;78;20849;-86
2021/11/06 05:55:16;;;;;;;144.28;40.78;;;;;;;12.68;100.00;101691.70;1814302;79;21139;-85
2021/11/06 05:57:43;;;;;;;143.57;41.23;;;;;;;12.69;100.00;101683.87;1814594;79;21140;-86
2021/11/06 06:00:15;;;;;;;144.60;40.45;;;;;;;12.71;100.00;101690.67;1814459;79;21062;-86
2021/11/06 06:02:42;;;;;;;154.25;41.68;;;;;;;12.72;100.00;101707.72;1814609;79;21548;-86
2021/11/06 06:05:08;;;;;;;144.97;39.40;;;;;;;12.75;100.00;101714.52;1814512;79;21586;-86
2021/11/06 06:07:36;;;;;;;168.02;42.45;;;;;;;12.78;100.00;101708.62;1814383;79;21066;-86
2021/11/06 06:10:05;;;;;;;155.37;43.78;;;;;;;12.81;100.00;101715.70;1814510;79;21002;-86
2021/11/06 06:12:32;;;;;;;164.05;43.40;;;;;;;12.86;100.00;101732.55;1814584;79;21518;-86
2021/11/06 06:14:58;;;;;;;194.13;52.53;;;;;;;12.89;100.00;101736.94;1809530;79;21468;-85
2021/11/06 06:17:24;;;;;;;192.47;52.55;;;;;;;12.92;100.00;101731.03;1814730;79;21039;-86
2021/11/06 06:19:50;;;;;;;195.32;54.60;;;;;;;12.94;100.00;101730.77;1823177;78;21066;-86
2021/11/06 06:22:16;;;;;;;215.28;56.23;;;;;;;12.94;100.00;101744.29;1831594;78;22842;-88
2021/11/06 06:24:42;;;;;;;198.17;53.50;;;;;;;12.94;100.00;101753.77;1831496;78;20943;-86
2021/11/06 06:27:08;;;;;;;189.70;50.58;;;;;;;12.94;100.00;101758.66;1829871;77;20986;-87
2021/11/06 06:29:34;;;;;;;194.45;51.05;;;;;;;12.94;100.00;101757.82;1829573;78;21506;-88
2021/11/06 06:32:01;;;;;;;216.73;55.80;;;;;;;12.98;100.00;101758.98;1830816;77;21109;-88
2021/11/06 06:34:27;;;;;;;203.32;52.83;;;;;;;13.02;100.00;101753.89;1830466;78;21607;-87
2021/11/06 06:36:54;;;;;;;211.40;52.60;;;;;;;13.07;100.00;101759.39;1830117;78;21096;-88
2021/11/06 06:39:20;;;;;;;218.80;51.85;;;;;;;13.11;100.00;101752.41;1811426;78;21087;-87
2021/11/06 06:41:50;;;;;;;210.00;52.43;;;;;;;13.14;100.00;101763.55;1827805;76;21305;-87
2021/11/06 06:44:16;;;;;;;211.32;54.33;;;;;;;13.17;100.00;101764.94;1830270;77;21134;-87
2021/11/06 06:46:43;;;;;;;198.87;52.50;;;;;;;13.19;100.00;101770.94;1830306;78;21034;-87
2021/11/06 06:49:08;;;;;;;220.07;56.70;;;;;;;13.21;100.00;101766.61;1829605;77;20992;-86
2021/11/06 06:51:34;;;;;;;216.33;53.35;;;;;;;13.27;100.00;101779.21;1830355;78;20836;-87
2021/11/06 06:54:01;;;;;;;215.90;54.60;;;;;;;13.31;100.00;101780.34;1829845;78;21530;-88
2021/11/06 06:56:26;;;;;;;207.43;51.98;;;;;;;13.38;100.00;101775.55;1829767;78;21224;-87
2021/11/06 06:58:57;;;;;;;196.37;49.53;;;;;;;13.45;100.00;101778.11;1829584;78;21071;-87
2021/11/06 07:01:23;;;;;;;198.65;53.60;;;;;;;13.53;100.00;101780.36;1829968;77;21015;-86
2021/11/06 07:03:49;;;;;;;189.97;49.65;;;;;;;13.65;100.00;101785.16;1830005;78;21620;-86
2021/11/06 07:06:15;;;;;;;171.18;46.83;;;;;;;13.73;100.00;101787.95;1829995;77;20875;-86
2021/11/06 07:08:42;;;;;;;156.80;46.65;;;;;;;13.81;100.00;101777.48;1829979;78;21170;-86
2021/11/06 07:11:08;;;;;;;145.43;43.68;;;;;;;13.90;100.00;101772.45;1810801;78;21019;-86
2021/11/06 07:13:36;;;;;;;138.18;41.95;;;;;;;14.04;100.00;101767.47;1829436;77;20978;-86
2021/11/06 07:16:02;;;;;;;134.87;42.15;;;;;;;14.13;100.00;101766.48;1829484;78;21531;-86
2021/11/06 07:18:28;;;;;;;126.05;39.78;;;;;;;14.20;100.00;101759.77;1830816;78;20995;-85
2021/11/06 07:20:53;;;;;;;110.45;35.50;;;;;;;14.28;100.00;101763.92;1831706;78;21990;-85
2021/11/06 07:23:19;;;;;;;104.50;35.30;;;;;;;14.37;100.00;101752.08;1830039;78;20876;-84
2021/11/06 07:25:45;;;;;;;101.07;36.50;;;;;;;14.42;100.00;101739.93;1825868;78;20944;-84
2021/11/06 07:28:11;;;;;;;100.55;36.73;;;;;;;14.56;100.00;101740.33;1825719;78;20986;-84
2021/11/06 07:30:37;;;;;;;96.97;33.85;;;;;;;14.66;100.00;101730.94;1794909;79;20891;-85
2021/11/06 07:33:06;;;;;;;89.03;33.50;;;;;;;14.74;100.00;101729.92;1794869;79;21004;-84
2021/11/06 07:35:32;;;;;;;81.47;29.52;;;;;;;14.94;100.00;101721.63;1795351;79;21566;-83
2021/11/06 07:37:59;;;;;;;77.00;26.90;;;;;;;15.14;100.00;101720.95;1795052;79;20882;-84
2021/11/06 07:40:25;;;;;;;79.20;27.30;;;;;;;15.17;100.00;101717.70;1779006;79;21019;-84
2021/11/06 07:42:52;;;;;;;62.38;24.65;;;;;;;15.26;100.00;101711.24;1768519;80;21003;-84
2021/11/06 07:45:20;;;;;;;75.03;26.30;;;;;;;15.41;100.00;101708.08;1780971;79;21071;-84
2021/11/06 07:47:48;;;;;;;70.67;25.88;;;;;;;15.45;100.00;101698.30;1785201;79;21059;-84
2021/11/06 07:50:14;;;;;;;70.85;27.17;;;;;;;15.47;100.00;101698.05;1772375;78;20974;-84
2021/11/06 07:52:40;;;;;;;74.70;25.90;;;;;;;15.55;100.00;101692.63;1791735;79;21460;-84
2021/11/06 07:55:07;;;;;;;68.12;25.08;;;;;;;15.63;100.00;101691.58;1808357;78;20992;-83
2021/11/06 07:57:33;;;;;;;72.12;26.17;;;;;;;15.75;100.00;101692.73;1825781;78;21791;-83
2021/11/06 08:00:03;;;;;;;70.75;25.02;;;;;;;15.83;100.00;101693.58;1813311;77;21041;-83
2021/11/06 08:02:28;;;;;;;64.40;23.75;;;;;;;16.00;100.00;101691.99;1801657;77;21062;-83
2021/11/06 08:04:54;;;;;;;51.02;20.45;;;;;;;16.09;100.00;101698.53;1838374;77;20923;-83
2021/11/06 08:07:20;;;;;;;49.67;21.48;;;;;;;16.23;100.00;101696.62;1840125;77;20986;-83
2021/11/06 08:09:46;;;;;;;52.15;20.55;;;;;;;16.29;100.00;101690.09;1802396;77;21106;-83
2021/11/06 08:12:12;;;;;;;51.33;19.80;;;;;;;16.06;100.00;101677.83;1831003;77;21501;-86
2021/11/06 08:14:37;;;;;;;49.40;17.52;;;;;;;16.08;100.00;101688.72;1786272;78;20895;-86
2021/11/06 08:17:04;;;;;;;51.53;18.57;;;;;;;16.02;100.00;101694.42;1780487;80;20883;-86
2021/11/06 08:19:30;;;;;;;46.42;17.98;;;;;;;15.93;100.00;101696.85;1797203;78;21631;-86
2021/11/06 08:21:56;;;;;;;45.43;18.12;;;;;;;15.91;100.00;101700.38;1800762;78;21289;-86
2021/11/06 08:24:22;;;;;;;43.38;15.60;;;;;;;15.93;100.00;101702.29;1823988;78;21015;-86
2021/11/06 08:26:50;;;;;;;42.90;17.27;;;;;;;15.94;100.00;101703.10;1823981;77;22339;-85
2021/11/06 08:29:16;;;;;;;40.43;16.45;;;;;;;16.07;100.00;101703.96;1824108;78;21116;-87
2021/11/06 08:31:43;;;;;;;35.35;15.53;;;;;;;16.09;100.00;101709.95;1824341;78;21033;-86
2021/11/06 08:34:10;;;;;;;36.35;14.50;;;;;;;15.98;100.00;101686.55;1824415;78;21008;-86
2021/11/06 08:36:36;;;;;;;38.25;15.50;;;;;;;15.94;100.00;101684.07;1821778;78;20967;-85
2021/11/06 08:39:05;;;;;;;38.67;14.68;;;;;;;16.09;100.00;101705.33;1825637;78;21051;-85
2021/11/06 08:41:31;;;;;;;39.27;15.55;;;;;;;16.14;100.00;101703.14;1825231;78;21038;-85
2021/11/06 08:43:56;;;;;;;44.15;16.32;;;;;;;16.23;100.00;101700.16;1825260;78;20955;-85
2021/11/06 08:46:22;;;;;;;39.15;17.20;;;;;;;16.28;100.00;101709.69;1825731;78;21139;-85
2021/11/06 08:48:48;;;;;;;47.13;18.20;;;;;;;16.20;100.00;101712.13;1825559;78;21594;-85
2021/11/06 08:51:14;;;;;;;40.12;15.93;;;;;;;16.02;100.00;101718.89;1825647;78;21554;-85
2021/11/06 08:53:40;;;;;;;39.35;16.05;;;;;;;16.02;100.00;101718.89;1825866;78;20836;-85
2021/11/06 08:56:06;;;;;;;36.05;16.62;;;;;;;15.98;100.00;101713.19;1822778;78;20908;-85
2021/11/06 08:58:33;;;;;;;52.90;20.20;;;;;;;15.93;100.00;101703.65;1805111;78;22098;-85
2021/11/06 09:01:00;;;;;;;51.00;20.20;;;;;;;15.84;100.00;101707.98;1825533;78;21051;-86
2021/11/06 09:03:27;;;;;;;52.55;22.42;;;;;;;15.84;100.00;101707.98;1815741;77;21019;-85
2021/11/06 09:05:55;;;;;;;66.33;27.50;;;;;;;15.81;100.00;101706.61;1823961;78;20993;-84
2021/11/06 09:08:26;;;;;;;76.65;29.92;;;;;;;15.84;100.00;101709.34;1824050;78;20921;-84
2021/11/06 09:11:02;;;;;;;72.90;30.65;;;;;;;15.94;100.00;101701.74;1660193;84;21168;-84
2021/11/06 09:13:27;;;;;;;73.57;30.75;;;;;;;15.94;100.00;101701.74;1596780;86;21165;-85
2021/11/06 09:15:54;;;;;;;74.85;31.68;;;;;;;16.04;100.00;101704.50;1610620;86;21068;-85
2021/11/06 09:18:19;;;;;;;82.88;32.88;;;;;;;15.92;100.00;101706.11;1598121;88;21166;-87
2021/11/06 09:20:45;;;;;;;81.53;32.90;;;;;;;16.00;100.00;101700.66;1544843;91;20961;-87
2021/11/06 09:23:16;;;;;;;77.00;32.23;;;;;;;15.98;100.00;101694.70;1557595;89;22061;-85
2021/11/06 09:25:42;;;;;;;78.50;31.30;;;;;;;16.00;100.00;101693.87;1561802;90;21102;-86
2021/11/06 09:28:10;;;;;;;85.25;34.55;;;;;;;16.03;100.00;101693.33;1543114;90;21257;-86
2021/11/06 09:30:36;;;;;;;80.50;30.90;;;;;;;16.03;100.00;101698.77;1561292;89;21123;-89
2021/11/06 09:33:05;;;;;;;76.80;31.10;;;;;;;16.01;100.00;101703.67;1582998;89;21643;-89
2021/11/06 09:35:31;;;;;;;79.92;30.48;;;;;;;15.97;100.00;101700.69;1564125;90;21097;-87
2021/11/06 09:37:58;;;;;;;72.42;29.02;;;;;;;15.84;100.00;101697.92;1580654;88;20894;-87
2021/11/06 09:40:24;;;;;;;74.12;28.32;;;;;;;15.82;100.00;101697.36;1597298;88;21084;-87
2021/11/06 09:45:20;;;;;;;67.22;25.60;;;;;;;15.80;100.00;101701.45;1600179;86;21164;-87
2021/11/06 09:47:47;;;;;;;68.28;27.87;;;;;;;15.79;100.00;101704.69;1646607;85;21255;-87
2021/11/06 09:50:17;;;;;;;70.60;26.82;;;;;;;15.73;100.00;101700.88;1651644;86;21059;-87
2021/11/06 09:52:46;;;;;;;67.58;26.07;;;;;;;15.76;100.00;101698.44;1631211;87;21667;-87
2021/11/06 09:55:16;;;;;;;71.50;26.80;;;;;;;15.76;100.00;101698.44;1579715;90;21081;-87
2021/11/06 09:57:45;;;;;;;68.17;25.40;;;;;;;15.77;100.00;101710.14;1561531;90;21233;-87
2021/11/06 10:00:15;;;;;;;73.02;29.85;;;;;;;15.75;100.00;101715.83;1556374;90;21219;-87
2021/11/06 10:02:42;;;;;;;64.45;27.22;;;;;;;15.75;100.00;101715.83;1578477;89;21146;-88
2021/11/06 10:05:10;;;;;;;71.60;25.92;;;;;;;15.75;100.00;101706.87;1568085;89;21125;-87
2021/11/06 10:07:38;;;;;;;68.60;26.02;;;;;;;15.73;100.00;101704.41;1596971;87;21053;-87
2021/11/06 10:10:12;;;;;;;63.08;25.27;;;;;;;15.67;100.00;101706.80;1620426;86;21567;-88
2021/11/06 10:12:55;;;;;;;62.00;24.45;;;;;;;15.64;100.00;101719.56;1631352;87;21660;-87
2021/11/06 10:15:25;;;;;;;69.62;25.40;;;;;;;15.59;100.00;101730.44;1630238;86;21014;-86
2021/11/06 10:17:52;;;;;;;66.50;26.02;;;;;;;15.50;100.00;101712.46;1625956;86;21061;-87
2021/11/06 10:20:31;;;;;;;63.52;25.70;;;;;;;15.50;100.00;101706.19;1627995;86;21108;-89
2021/11/06 10:23:02;;;;;;;67.27;26.42;;;;;;;15.44;100.00;101701.27;1623477;86;21211;-87
2021/11/06 10:25:28;;;;;;;82.35;27.87;;;;;;;15.34;100.00;101683.03;1601949;87;21137;-87
2021/11/06 10:28:00;;;;;;;78.00;30.88;;;;;;;15.45;100.00;101698.84;1596444;89;21097;-89
2021/11/06 10:30:35;;;;;;;87.47;32.30;;;;;;;15.42;100.00;101704.27;1583050;90;21070;-86
2021/11/06 10:33:15;;;;;;;86.05;31.62;;;;;;;15.43;100.00;101695.57;1564801;90;21681;-86
2021/11/06 10:35:48;;;;;;;82.45;32.53;;;;;;;15.41;100.00;101682.78;1555833;90;21625;-85
2021/11/06 10:38:23;;;;;;;88.90;32.00;;;;;;;15.42;100.00;101683.89;1562058;89;21064;-86
2021/11/06 10:40:59;;;;;;;99.62;36.42;;;;;;;15.37;100.00;101678.98;1582717;89;21151;-86
2021/11/06 10:43:28;;;;;;;123.80;47.58;;;;;;;15.33;100.00;101675.98;1596232;88;21044;-88
2021/11/06 10:45:58;;;;;;;129.40;48.08;;;;;;;15.34;100.00;101671.36;1572225;90;21191;-86
2021/11/06 10:48:33;;;;;;;125.15;47.75;;;;;;;15.36;100.00;101679.52;1584021;90;21129;-86
2021/11/06 10:51:09;;;;;;;90.62;33.10;;;;;;;15.38;100.00;101673.30;1648634;86;21257;-86
2021/11/06 10:53:54;;;;;;;91.25;34.20;;;;;;;15.40;100.00;101667.58;1648635;86;21105;-86
2021/11/06 10:56:30;;;;;;;87.70;31.90;;;;;;;15.52;100.00;101671.43;1650003;86;21115;-86
2021/11/06 10:59:15;;;;;;;78.90;30.55;;;;;;;15.57;100.00;101675.53;1661428;85;21042;-86
2021/11/06 11:01:52;;;;;;;74.45;26.55;;;;;;;15.50;100.00;101678.50;1628401;87;21728;-86